sensor_id;sensor_type;location;lat;lon;timestamp;P1;durP1;ratioP1;P2;durP2;ratioP2
56637;SDS011;42507;51.982;20.140;2022-10-04T00:04:32;11.73;;;4.47;;
56637;SDS011;42507;51.982;20.140;2022-10-04T00:09:59;16.00;;;5.28;;
56637;SDS011;42507;51.982;20.140;2022-10-04T00:12:40;13.05;;;4.30;;
56637;SDS011;42507;51.982;20.140;2022-10-04T00:15:18;12.68;;;4.35;;
56637;SDS011;42507;51.982;20.140;2022-10-04T00:28:31;9.90;;;4.15;;
56637;SDS011;42507;51.982;20.140;2022-10-04T00:36:47;10.60;;;4.12;;
56637;SDS011;42507;51.982;20.140;2022-10-04T00:39:23;9.23;;;3.72;;
56637;SDS011;42507;51.982;20.140;2022-10-04T00:42:16;10.75;;;3.30;;
56637;SDS011;42507;51.982;20.140;2022-10-04T00:45:06;10.65;;;3.27;;
56637;SDS011;42507;51.982;20.140;2022-10-04T00:47:53;10.15;;;3.70;;
56637;SDS011;42507;51.982;20.140;2022-10-04T00:50:16;12.47;;;3.62;;
56637;SDS011;42507;51.982;20.140;2022-10-04T00:52:50;7.62;;;3.08;;
56637;SDS011;42507;51.982;20.140;2022-10-04T00:55:22;5.75;;;2.67;;
56637;SDS011;42507;51.982;20.140;2022-10-04T00:58:02;5.65;;;3.00;;
56637;SDS011;42507;51.982;20.140;2022-10-04T01:00:30;5.67;;;2.60;;
56637;SDS011;42507;51.982;20.140;2022-10-04T01:02:59;7.37;;;2.60;;
56637;SDS011;42507;51.982;20.140;2022-10-04T01:05:29;12.03;;;2.70;;
56637;SDS011;42507;51.982;20.140;2022-10-04T01:10:39;5.92;;;2.10;;
56637;SDS011;42507;51.982;20.140;2022-10-04T01:13:25;6.00;;;2.72;;
56637;SDS011;42507;51.982;20.140;2022-10-04T01:18:32;5.72;;;2.25;;
56637;SDS011;42507;51.982;20.140;2022-10-04T01:21:04;3.75;;;2.22;;
56637;SDS011;42507;51.982;20.140;2022-10-04T01:26:37;6.35;;;2.33;;
56637;SDS011;42507;51.982;20.140;2022-10-04T01:31:50;4.55;;;2.27;;
56637;SDS011;42507;51.982;20.140;2022-10-04T01:34:20;5.40;;;2.60;;
56637;SDS011;42507;51.982;20.140;2022-10-04T01:36:48;4.70;;;2.60;;
56637;SDS011;42507;51.982;20.140;2022-10-04T01:39:18;7.35;;;2.35;;
56637;SDS011;42507;51.982;20.140;2022-10-04T01:41:56;6.55;;;2.55;;
56637;SDS011;42507;51.982;20.140;2022-10-04T01:44:51;7.53;;;2.60;;
56637;SDS011;42507;51.982;20.140;2022-10-04T01:47:31;5.40;;;2.45;;
56637;SDS011;42507;51.982;20.140;2022-10-04T01:50:01;3.17;;;2.05;;
56637;SDS011;42507;51.982;20.140;2022-10-04T01:52:36;7.00;;;2.75;;
56637;SDS011;42507;51.982;20.140;2022-10-04T01:55:15;3.90;;;2.40;;
56637;SDS011;42507;51.982;20.140;2022-10-04T01:57:51;7.72;;;3.08;;
56637;SDS011;42507;51.982;20.140;2022-10-04T02:00:21;6.92;;;2.85;;
56637;SDS011;42507;51.982;20.140;2022-10-04T02:05:30;6.85;;;2.77;;
56637;SDS011;42507;51.982;20.140;2022-10-04T02:08:04;11.68;;;3.47;;
56637;SDS011;42507;51.982;20.140;2022-10-04T02:10:33;12.05;;;3.47;;
56637;SDS011;42507;51.982;20.140;2022-10-04T02:13:04;9.85;;;3.67;;
56637;SDS011;42507;51.982;20.140;2022-10-04T02:15:43;8.60;;;3.40;;
56637;SDS011;42507;51.982;20.140;2022-10-04T02:18:15;7.33;;;3.00;;
56637;SDS011;42507;51.982;20.140;2022-10-04T02:20:43;10.45;;;3.77;;
56637;SDS011;42507;51.982;20.140;2022-10-04T02:23:10;8.88;;;3.62;;
56637;SDS011;42507;51.982;20.140;2022-10-04T02:25:37;9.48;;;3.25;;
56637;SDS011;42507;51.982;20.140;2022-10-04T02:28:04;9.58;;;3.50;;
56637;SDS011;42507;51.982;20.140;2022-10-04T02:30:36;11.15;;;3.55;;
56637;SDS011;42507;51.982;20.140;2022-10-04T02:33:03;13.65;;;4.20;;
56637;SDS011;42507;51.982;20.140;2022-10-04T02:35:37;10.75;;;3.50;;
56637;SDS011;42507;51.982;20.140;2022-10-04T02:38:21;11.18;;;3.45;;
56637;SDS011;42507;51.982;20.140;2022-10-04T02:40:58;10.60;;;3.62;;
56637;SDS011;42507;51.982;20.140;2022-10-04T02:43:38;10.78;;;3.72;;
56637;SDS011;42507;51.982;20.140;2022-10-04T02:46:27;9.73;;;3.77;;
56637;SDS011;42507;51.982;20.140;2022-10-04T02:48:59;7.85;;;3.15;;
56637;SDS011;42507;51.982;20.140;2022-10-04T02:51:33;11.73;;;4.65;;
56637;SDS011;42507;51.982;20.140;2022-10-04T02:56:53;12.07;;;4.15;;
56637;SDS011;42507;51.982;20.140;2022-10-04T02:59:21;14.03;;;4.67;;
56637;SDS011;42507;51.982;20.140;2022-10-04T03:01:55;14.20;;;5.67;;
56637;SDS011;42507;51.982;20.140;2022-10-04T03:04:27;12.15;;;5.53;;
56637;SDS011;42507;51.982;20.140;2022-10-04T03:07:01;13.05;;;4.72;;
56637;SDS011;42507;51.982;20.140;2022-10-04T03:09:31;10.95;;;4.65;;
56637;SDS011;42507;51.982;20.140;2022-10-04T03:11:57;10.60;;;4.12;;
56637;SDS011;42507;51.982;20.140;2022-10-04T03:14:24;13.28;;;5.72;;
56637;SDS011;42507;51.982;20.140;2022-10-04T03:16:53;11.90;;;4.83;;
56637;SDS011;42507;51.982;20.140;2022-10-04T03:19:21;9.75;;;4.60;;
56637;SDS011;42507;51.982;20.140;2022-10-04T03:21:50;12.55;;;5.92;;
56637;SDS011;42507;51.982;20.140;2022-10-04T03:24:27;9.13;;;4.78;;
56637;SDS011;42507;51.982;20.140;2022-10-04T03:27:01;13.20;;;4.47;;
56637;SDS011;42507;51.982;20.140;2022-10-04T03:29:30;14.20;;;5.45;;
56637;SDS011;42507;51.982;20.140;2022-10-04T03:31:57;13.72;;;5.42;;
56637;SDS011;42507;51.982;20.140;2022-10-04T03:34:27;9.85;;;4.85;;
56637;SDS011;42507;51.982;20.140;2022-10-04T03:37:00;14.55;;;4.75;;
56637;SDS011;42507;51.982;20.140;2022-10-04T03:39:29;9.68;;;4.62;;
56637;SDS011;42507;51.982;20.140;2022-10-04T03:42:02;12.58;;;5.28;;
56637;SDS011;42507;51.982;20.140;2022-10-04T03:44:31;10.50;;;4.50;;
56637;SDS011;42507;51.982;20.140;2022-10-04T03:46:58;13.75;;;4.62;;
56637;SDS011;42507;51.982;20.140;2022-10-04T03:49:29;10.78;;;4.58;;
56637;SDS011;42507;51.982;20.140;2022-10-04T03:52:00;11.80;;;4.12;;
56637;SDS011;42507;51.982;20.140;2022-10-04T03:54:27;15.55;;;4.28;;
56637;SDS011;42507;51.982;20.140;2022-10-04T03:56:54;13.08;;;4.65;;
56637;SDS011;42507;51.982;20.140;2022-10-04T03:59:20;12.28;;;3.75;;
56637;SDS011;42507;51.982;20.140;2022-10-04T04:01:57;16.42;;;4.40;;
56637;SDS011;42507;51.982;20.140;2022-10-04T04:04:54;13.68;;;4.67;;
56637;SDS011;42507;51.982;20.140;2022-10-04T04:07:46;13.22;;;3.98;;
56637;SDS011;42507;51.982;20.140;2022-10-04T04:15:35;9.98;;;3.05;;
56637;SDS011;42507;51.982;20.140;2022-10-04T04:18:05;8.75;;;3.52;;
56637;SDS011;42507;51.982;20.140;2022-10-04T04:20:44;9.58;;;3.50;;
56637;SDS011;42507;51.982;20.140;2022-10-04T04:23:18;14.70;;;4.03;;
56637;SDS011;42507;51.982;20.140;2022-10-04T04:26:09;12.33;;;4.45;;
56637;SDS011;42507;51.982;20.140;2022-10-04T04:31:21;12.13;;;4.62;;
56637;SDS011;42507;51.982;20.140;2022-10-04T04:33:55;8.20;;;4.60;;
56637;SDS011;42507;51.982;20.140;2022-10-04T04:36:30;14.47;;;4.58;;
56637;SDS011;42507;51.982;20.140;2022-10-04T04:39:16;10.75;;;5.80;;
56637;SDS011;42507;51.982;20.140;2022-10-04T04:42:00;12.00;;;5.45;;
56637;SDS011;42507;51.982;20.140;2022-10-04T04:44:37;17.90;;;6.35;;
56637;SDS011;42507;51.982;20.140;2022-10-04T04:47:07;13.00;;;6.15;;
56637;SDS011;42507;51.982;20.140;2022-10-04T04:49:36;15.32;;;5.95;;
56637;SDS011;42507;51.982;20.140;2022-10-04T04:52:04;13.93;;;7.47;;
56637;SDS011;42507;51.982;20.140;2022-10-04T04:54:31;13.68;;;6.90;;
56637;SDS011;42507;51.982;20.140;2022-10-04T04:56:57;19.70;;;7.80;;
56637;SDS011;42507;51.982;20.140;2022-10-04T04:59:23;17.07;;;7.72;;
56637;SDS011;42507;51.982;20.140;2022-10-04T05:01:52;17.17;;;7.37;;
56637;SDS011;42507;51.982;20.140;2022-10-04T05:04:19;15.50;;;7.78;;
56637;SDS011;42507;51.982;20.140;2022-10-04T05:06:57;18.75;;;8.08;;
56637;SDS011;42507;51.982;20.140;2022-10-04T05:12:02;13.95;;;6.83;;
56637;SDS011;42507;51.982;20.140;2022-10-04T05:14:48;15.15;;;7.62;;
56637;SDS011;42507;51.982;20.140;2022-10-04T05:17:19;17.15;;;8.13;;
56637;SDS011;42507;51.982;20.140;2022-10-04T05:19:50;16.50;;;8.43;;
56637;SDS011;42507;51.982;20.140;2022-10-04T05:22:19;14.03;;;7.55;;
56637;SDS011;42507;51.982;20.140;2022-10-04T05:24:47;17.35;;;7.65;;
56637;SDS011;42507;51.982;20.140;2022-10-04T05:27:26;12.23;;;7.22;;
56637;SDS011;42507;51.982;20.140;2022-10-04T05:30:05;13.80;;;8.13;;
56637;SDS011;42507;51.982;20.140;2022-10-04T05:38:49;14.15;;;7.15;;
56637;SDS011;42507;51.982;20.140;2022-10-04T05:41:30;15.00;;;7.70;;
56637;SDS011;42507;51.982;20.140;2022-10-04T05:44:16;11.22;;;7.40;;
56637;SDS011;42507;51.982;20.140;2022-10-04T05:46:48;12.33;;;7.37;;
56637;SDS011;42507;51.982;20.140;2022-10-04T05:49:15;15.88;;;7.42;;
56637;SDS011;42507;51.982;20.140;2022-10-04T05:57:11;14.53;;;7.10;;
56637;SDS011;42507;51.982;20.140;2022-10-04T06:00:12;14.60;;;7.55;;
56637;SDS011;42507;51.982;20.140;2022-10-04T06:05:27;15.35;;;7.17;;
56637;SDS011;42507;51.982;20.140;2022-10-04T06:08:30;13.35;;;7.72;;
56637;SDS011;42507;51.982;20.140;2022-10-04T06:11:11;14.13;;;6.55;;
56637;SDS011;42507;51.982;20.140;2022-10-04T06:17:05;16.50;;;8.08;;
56637;SDS011;42507;51.982;20.140;2022-10-04T06:20:07;11.05;;;6.53;;
56637;SDS011;42507;51.982;20.140;2022-10-04T06:22:55;15.38;;;7.55;;
56637;SDS011;42507;51.982;20.140;2022-10-04T06:25:24;14.28;;;7.75;;
56637;SDS011;42507;51.982;20.140;2022-10-04T06:28:01;15.15;;;7.53;;
56637;SDS011;42507;51.982;20.140;2022-10-04T06:30:38;12.43;;;7.47;;
56637;SDS011;42507;51.982;20.140;2022-10-04T06:50:47;11.63;;;6.95;;
56637;SDS011;42507;51.982;20.140;2022-10-04T06:53:28;15.88;;;8.20;;
56637;SDS011;42507;51.982;20.140;2022-10-04T06:59:21;16.67;;;8.33;;
56637;SDS011;42507;51.982;20.140;2022-10-04T07:01:54;16.42;;;8.25;;
56637;SDS011;42507;51.982;20.140;2022-10-04T07:07:28;16.07;;;7.78;;
56637;SDS011;42507;51.982;20.140;2022-10-04T07:13:12;9.45;;;6.25;;
56637;SDS011;42507;51.982;20.140;2022-10-04T07:15:59;8.50;;;5.25;;
56637;SDS011;42507;51.982;20.140;2022-10-04T07:18:32;9.35;;;6.08;;
56637;SDS011;42507;51.982;20.140;2022-10-04T07:21:21;7.50;;;5.25;;
56637;SDS011;42507;51.982;20.140;2022-10-04T07:23:52;10.98;;;5.45;;
56637;SDS011;42507;51.982;20.140;2022-10-04T07:26:24;11.88;;;6.08;;
56637;SDS011;42507;51.982;20.140;2022-10-04T07:29:18;12.07;;;6.78;;
56637;SDS011;42507;51.982;20.140;2022-10-04T07:34:47;9.68;;;5.17;;
56637;SDS011;42507;51.982;20.140;2022-10-04T07:37:19;11.18;;;5.00;;
56637;SDS011;42507;51.982;20.140;2022-10-04T07:42:38;8.40;;;5.78;;
56637;SDS011;42507;51.982;20.140;2022-10-04T07:48:00;7.78;;;5.40;;
56637;SDS011;42507;51.982;20.140;2022-10-04T07:50:41;5.37;;;3.62;;
56637;SDS011;42507;51.982;20.140;2022-10-04T07:53:39;6.15;;;3.80;;
56637;SDS011;42507;51.982;20.140;2022-10-04T07:56:18;5.47;;;3.95;;
56637;SDS011;42507;51.982;20.140;2022-10-04T08:01:38;7.47;;;4.28;;
56637;SDS011;42507;51.982;20.140;2022-10-04T08:07:19;4.47;;;3.10;;
56637;SDS011;42507;51.982;20.140;2022-10-04T08:10:21;9.03;;;4.08;;
56637;SDS011;42507;51.982;20.140;2022-10-04T08:15:49;7.53;;;4.90;;
56637;SDS011;42507;51.982;20.140;2022-10-04T08:18:24;10.38;;;5.30;;
56637;SDS011;42507;51.982;20.140;2022-10-04T08:21:05;10.30;;;5.62;;
56637;SDS011;42507;51.982;20.140;2022-10-04T08:23:41;10.25;;;5.90;;
56637;SDS011;42507;51.982;20.140;2022-10-04T08:26:39;8.93;;;4.33;;
56637;SDS011;42507;51.982;20.140;2022-10-04T08:29:43;6.72;;;4.50;;
56637;SDS011;42507;51.982;20.140;2022-10-04T08:38:17;8.68;;;6.08;;
56637;SDS011;42507;51.982;20.140;2022-10-04T08:44:22;7.95;;;5.25;;
56637;SDS011;42507;51.982;20.140;2022-10-04T08:49:59;5.28;;;3.05;;
56637;SDS011;42507;51.982;20.140;2022-10-04T08:53:04;8.48;;;4.40;;
56637;SDS011;42507;51.982;20.140;2022-10-04T08:58:55;7.90;;;4.55;;
56637;SDS011;42507;51.982;20.140;2022-10-04T09:01:44;9.60;;;4.87;;
56637;SDS011;42507;51.982;20.140;2022-10-04T09:16:46;4.55;;;3.33;;
56637;SDS011;42507;51.982;20.140;2022-10-04T09:19:21;5.62;;;2.37;;
56637;SDS011;42507;51.982;20.140;2022-10-04T09:22:43;5.35;;;2.58;;
56637;SDS011;42507;51.982;20.140;2022-10-04T09:25:18;2.95;;;2.15;;
56637;SDS011;42507;51.982;20.140;2022-10-04T09:28:11;7.17;;;2.95;;
56637;SDS011;42507;51.982;20.140;2022-10-04T09:34:21;5.20;;;2.80;;
56637;SDS011;42507;51.982;20.140;2022-10-04T09:37:11;3.60;;;2.60;;
56637;SDS011;42507;51.982;20.140;2022-10-04T09:40:20;8.38;;;3.55;;
56637;SDS011;42507;51.982;20.140;2022-10-04T09:45:56;4.87;;;2.20;;
56637;SDS011;42507;51.982;20.140;2022-10-04T09:48:24;3.50;;;2.17;;
56637;SDS011;42507;51.982;20.140;2022-10-04T09:51:13;6.30;;;2.67;;
56637;SDS011;42507;51.982;20.140;2022-10-04T09:59:51;4.42;;;2.72;;
56637;SDS011;42507;51.982;20.140;2022-10-04T10:02:45;7.60;;;3.33;;
56637;SDS011;42507;51.982;20.140;2022-10-04T10:05:53;7.80;;;2.70;;
56637;SDS011;42507;51.982;20.140;2022-10-04T10:11:47;5.65;;;2.83;;
56637;SDS011;42507;51.982;20.140;2022-10-04T10:14:54;7.53;;;4.15;;
56637;SDS011;42507;51.982;20.140;2022-10-04T10:17:49;8.48;;;4.00;;
56637;SDS011;42507;51.982;20.140;2022-10-04T10:26:19;5.37;;;3.20;;
56637;SDS011;42507;51.982;20.140;2022-10-04T10:52:13;11.75;;;5.17;;
56637;SDS011;42507;51.982;20.140;2022-10-04T10:54:57;10.18;;;4.17;;
56637;SDS011;42507;51.982;20.140;2022-10-04T11:10:22;7.90;;;3.75;;
56637;SDS011;42507;51.982;20.140;2022-10-04T11:13:18;7.58;;;4.95;;
56637;SDS011;42507;51.982;20.140;2022-10-04T11:24:54;5.35;;;2.62;;
56637;SDS011;42507;51.982;20.140;2022-10-04T11:28:00;4.25;;;2.60;;
56637;SDS011;42507;51.982;20.140;2022-10-04T11:36:43;3.65;;;3.02;;
56637;SDS011;42507;51.982;20.140;2022-10-04T11:42:43;8.53;;;3.40;;
56637;SDS011;42507;51.982;20.140;2022-10-04T11:48:09;6.80;;;3.40;;
56637;SDS011;42507;51.982;20.140;2022-10-04T11:56:33;5.47;;;2.60;;
56637;SDS011;42507;51.982;20.140;2022-10-04T12:02:28;6.42;;;3.40;;
56637;SDS011;42507;51.982;20.140;2022-10-04T12:08:44;4.83;;;2.35;;
56637;SDS011;42507;51.982;20.140;2022-10-04T12:11:45;6.22;;;2.90;;
56637;SDS011;42507;51.982;20.140;2022-10-04T12:38:27;4.55;;;2.72;;
56637;SDS011;42507;51.982;20.140;2022-10-04T12:46:55;4.53;;;2.50;;
56637;SDS011;42507;51.982;20.140;2022-10-04T12:52:25;4.42;;;2.42;;
56637;SDS011;42507;51.982;20.140;2022-10-04T12:55:00;2.92;;;1.80;;
56637;SDS011;42507;51.982;20.140;2022-10-04T12:57:52;6.78;;;2.72;;
56637;SDS011;42507;51.982;20.140;2022-10-04T13:00:23;5.12;;;2.70;;
56637;SDS011;42507;51.982;20.140;2022-10-04T13:14:14;5.95;;;3.17;;
56637;SDS011;42507;51.982;20.140;2022-10-04T13:22:35;3.72;;;2.15;;
56637;SDS011;42507;51.982;20.140;2022-10-04T13:30:45;4.42;;;2.22;;
56637;SDS011;42507;51.982;20.140;2022-10-04T13:36:20;3.12;;;1.92;;
56637;SDS011;42507;51.982;20.140;2022-10-04T13:39:12;7.78;;;3.27;;
56637;SDS011;42507;51.982;20.140;2022-10-04T13:41:54;4.28;;;2.10;;
56637;SDS011;42507;51.982;20.140;2022-10-04T13:44:50;7.90;;;2.02;;
56637;SDS011;42507;51.982;20.140;2022-10-04T13:53:05;5.22;;;2.22;;
56637;SDS011;42507;51.982;20.140;2022-10-04T13:56:52;6.35;;;2.35;;
56637;SDS011;42507;51.982;20.140;2022-10-04T14:01:55;3.98;;;1.62;;
56637;SDS011;42507;51.982;20.140;2022-10-04T14:07:28;2.95;;;1.70;;
56637;SDS011;42507;51.982;20.140;2022-10-04T14:22:43;3.72;;;1.55;;
56637;SDS011;42507;51.982;20.140;2022-10-04T14:26:02;3.55;;;1.52;;
56637;SDS011;42507;51.982;20.140;2022-10-04T14:30:58;5.08;;;1.70;;
56637;SDS011;42507;51.982;20.140;2022-10-04T14:39:58;4.22;;;1.70;;
56637;SDS011;42507;51.982;20.140;2022-10-04T14:43:11;3.27;;;2.00;;
56637;SDS011;42507;51.982;20.140;2022-10-04T14:54:49;4.85;;;1.92;;
56637;SDS011;42507;51.982;20.140;2022-10-04T14:57:50;5.05;;;1.80;;
56637;SDS011;42507;51.982;20.140;2022-10-04T15:03:14;5.53;;;2.00;;
56637;SDS011;42507;51.982;20.140;2022-10-04T15:06:04;6.35;;;2.30;;
56637;SDS011;42507;51.982;20.140;2022-10-04T15:11:45;3.92;;;1.77;;
56637;SDS011;42507;51.982;20.140;2022-10-04T15:14:37;5.50;;;1.90;;
56637;SDS011;42507;51.982;20.140;2022-10-04T15:17:07;4.95;;;1.85;;
56637;SDS011;42507;51.982;20.140;2022-10-04T15:19:43;3.45;;;1.85;;
56637;SDS011;42507;51.982;20.140;2022-10-04T15:22:31;8.03;;;2.47;;
56637;SDS011;42507;51.982;20.140;2022-10-04T15:34:31;10.45;;;4.05;;
56637;SDS011;42507;51.982;20.140;2022-10-04T15:37:40;8.43;;;3.70;;
56637;SDS011;42507;51.982;20.140;2022-10-04T15:43:10;5.30;;;3.40;;
56637;SDS011;42507;51.982;20.140;2022-10-04T15:45:47;6.95;;;3.25;;
56637;SDS011;42507;51.982;20.140;2022-10-04T15:48:48;6.53;;;2.95;;
56637;SDS011;42507;51.982;20.140;2022-10-04T16:00:24;19.62;;;9.63;;
56637;SDS011;42507;51.982;20.140;2022-10-04T16:02:57;16.02;;;9.70;;
56637;SDS011;42507;51.982;20.140;2022-10-04T16:05:43;11.22;;;5.97;;
56637;SDS011;42507;51.982;20.140;2022-10-04T16:14:06;25.43;;;13.68;;
56637;SDS011;42507;51.982;20.140;2022-10-04T16:20:55;19.85;;;8.88;;
56637;SDS011;42507;51.982;20.140;2022-10-04T16:31:36;22.45;;;12.43;;
56637;SDS011;42507;51.982;20.140;2022-10-04T16:34:15;24.95;;;9.78;;
56637;SDS011;42507;51.982;20.140;2022-10-04T16:40:00;15.83;;;8.28;;
56637;SDS011;42507;51.982;20.140;2022-10-04T16:45:41;21.17;;;11.30;;
56637;SDS011;42507;51.982;20.140;2022-10-04T16:53:48;15.40;;;7.40;;
56637;SDS011;42507;51.982;20.140;2022-10-04T17:05:18;21.55;;;8.85;;
56637;SDS011;42507;51.982;20.140;2022-10-04T17:08:02;19.27;;;8.88;;
56637;SDS011;42507;51.982;20.140;2022-10-04T17:10:57;20.68;;;9.03;;
56637;SDS011;42507;51.982;20.140;2022-10-04T17:16:11;14.93;;;7.75;;
56637;SDS011;42507;51.982;20.140;2022-10-04T17:18:42;14.87;;;7.45;;
56637;SDS011;42507;51.982;20.140;2022-10-04T17:21:27;17.12;;;6.90;;
56637;SDS011;42507;51.982;20.140;2022-10-04T17:24:23;16.27;;;7.33;;
56637;SDS011;42507;51.982;20.140;2022-10-04T17:27:17;20.05;;;9.10;;
56637;SDS011;42507;51.982;20.140;2022-10-04T17:30:12;18.15;;;10.10;;
56637;SDS011;42507;51.982;20.140;2022-10-04T17:44:45;35.17;;;12.98;;
56637;SDS011;42507;51.982;20.140;2022-10-04T17:48:14;36.13;;;13.32;;
56637;SDS011;42507;51.982;20.140;2022-10-04T17:50:25;30.10;;;12.05;;
56637;SDS011;42507;51.982;20.140;2022-10-04T17:53:22;38.67;;;15.63;;
56637;SDS011;42507;51.982;20.140;2022-10-04T17:56:10;36.85;;;15.00;;
56637;SDS011;42507;51.982;20.140;2022-10-04T17:58:43;31.93;;;13.50;;
56637;SDS011;42507;51.982;20.140;2022-10-04T18:01:17;37.55;;;12.20;;
56637;SDS011;42507;51.982;20.140;2022-10-04T18:03:57;30.82;;;12.23;;
56637;SDS011;42507;51.982;20.140;2022-10-04T18:07:00;26.57;;;13.62;;
56637;SDS011;42507;51.982;20.140;2022-10-04T18:17:49;28.50;;;13.25;;
56637;SDS011;42507;51.982;20.140;2022-10-04T18:20:24;25.23;;;12.35;;
56637;SDS011;42507;51.982;20.140;2022-10-04T18:22:58;24.85;;;11.60;;
56637;SDS011;42507;51.982;20.140;2022-10-04T18:25:40;22.87;;;11.83;;
56637;SDS011;42507;51.982;20.140;2022-10-04T18:30:50;25.02;;;11.60;;
56637;SDS011;42507;51.982;20.140;2022-10-04T18:36:16;20.57;;;11.12;;
56637;SDS011;42507;51.982;20.140;2022-10-04T18:38:59;19.75;;;10.70;;
56637;SDS011;42507;51.982;20.140;2022-10-04T18:41:31;21.55;;;11.05;;
56637;SDS011;42507;51.982;20.140;2022-10-04T18:44:18;26.17;;;12.78;;
56637;SDS011;42507;51.982;20.140;2022-10-04T18:46:46;28.17;;;12.63;;
56637;SDS011;42507;51.982;20.140;2022-10-04T18:52:05;24.02;;;11.43;;
56637;SDS011;42507;51.982;20.140;2022-10-04T18:54:42;19.95;;;10.72;;
56637;SDS011;42507;51.982;20.140;2022-10-04T18:57:31;18.17;;;9.43;;
56637;SDS011;42507;51.982;20.140;2022-10-04T19:00:22;16.77;;;9.10;;
56637;SDS011;42507;51.982;20.140;2022-10-04T19:03:14;19.30;;;8.38;;
56637;SDS011;42507;51.982;20.140;2022-10-04T19:06:07;21.90;;;9.30;;
56637;SDS011;42507;51.982;20.140;2022-10-04T19:09:04;21.75;;;9.78;;
56637;SDS011;42507;51.982;20.140;2022-10-04T19:11:53;21.07;;;8.83;;
56637;SDS011;42507;51.982;20.140;2022-10-04T19:14:31;19.30;;;8.70;;
56637;SDS011;42507;51.982;20.140;2022-10-04T19:17:34;13.53;;;8.58;;
56637;SDS011;42507;51.982;20.140;2022-10-04T19:24:01;18.77;;;9.35;;
56637;SDS011;42507;51.982;20.140;2022-10-04T19:26:13;16.62;;;8.65;;
56637;SDS011;42507;51.982;20.140;2022-10-04T19:28:41;14.28;;;7.95;;
56637;SDS011;42507;51.982;20.140;2022-10-04T19:31:16;15.45;;;7.80;;
56637;SDS011;42507;51.982;20.140;2022-10-04T19:42:32;13.40;;;7.10;;
56637;SDS011;42507;51.982;20.140;2022-10-04T19:47:45;17.62;;;7.70;;
56637;SDS011;42507;51.982;20.140;2022-10-04T19:53:05;14.40;;;7.55;;
56637;SDS011;42507;51.982;20.140;2022-10-04T19:55:48;17.65;;;8.13;;
56637;SDS011;42507;51.982;20.140;2022-10-04T19:58:41;13.48;;;8.00;;
56637;SDS011;42507;51.982;20.140;2022-10-04T20:01:29;14.45;;;7.22;;
56637;SDS011;42507;51.982;20.140;2022-10-04T20:03:55;15.80;;;7.12;;
56637;SDS011;42507;51.982;20.140;2022-10-04T20:06:53;14.83;;;7.10;;
56637;SDS011;42507;51.982;20.140;2022-10-04T20:09:48;13.98;;;7.22;;
56637;SDS011;42507;51.982;20.140;2022-10-04T20:17:48;13.58;;;7.28;;
56637;SDS011;42507;51.982;20.140;2022-10-04T20:23:10;15.35;;;7.15;;
56637;SDS011;42507;51.982;20.140;2022-10-04T20:31:00;18.02;;;8.05;;
56637;SDS011;42507;51.982;20.140;2022-10-04T20:36:09;12.95;;;6.08;;
56637;SDS011;42507;51.982;20.140;2022-10-04T20:38:43;10.50;;;6.03;;
56637;SDS011;42507;51.982;20.140;2022-10-04T20:50:24;11.20;;;5.25;;
56637;SDS011;42507;51.982;20.140;2022-10-04T20:52:59;10.43;;;6.15;;
56637;SDS011;42507;51.982;20.140;2022-10-04T20:55:31;11.65;;;5.40;;
56637;SDS011;42507;51.982;20.140;2022-10-04T20:58:01;15.93;;;5.53;;
56637;SDS011;42507;51.982;20.140;2022-10-04T21:00:55;14.07;;;7.30;;
56637;SDS011;42507;51.982;20.140;2022-10-04T21:03:27;14.07;;;7.53;;
56637;SDS011;42507;51.982;20.140;2022-10-04T21:06:05;14.83;;;7.17;;
56637;SDS011;42507;51.982;20.140;2022-10-04T21:08:35;13.15;;;6.28;;
56637;SDS011;42507;51.982;20.140;2022-10-04T21:11:16;20.92;;;8.10;;
56637;SDS011;42507;51.982;20.140;2022-10-04T21:13:49;15.08;;;6.95;;
56637;SDS011;42507;51.982;20.140;2022-10-04T21:16:35;12.98;;;6.67;;
56637;SDS011;42507;51.982;20.140;2022-10-04T21:22:05;14.53;;;6.60;;
56637;SDS011;42507;51.982;20.140;2022-10-04T21:30:02;10.03;;;5.80;;
56637;SDS011;42507;51.982;20.140;2022-10-04T21:32:33;11.12;;;6.12;;
56637;SDS011;42507;51.982;20.140;2022-10-04T21:35:02;12.68;;;6.17;;
56637;SDS011;42507;51.982;20.140;2022-10-04T21:37:30;14.78;;;6.42;;
56637;SDS011;42507;51.982;20.140;2022-10-04T21:39:56;10.45;;;5.75;;
56637;SDS011;42507;51.982;20.140;2022-10-04T21:42:24;15.98;;;6.70;;
56637;SDS011;42507;51.982;20.140;2022-10-04T21:44:50;15.45;;;7.28;;
56637;SDS011;42507;51.982;20.140;2022-10-04T21:47:17;17.65;;;6.87;;
56637;SDS011;42507;51.982;20.140;2022-10-04T21:49:45;14.40;;;6.95;;
56637;SDS011;42507;51.982;20.140;2022-10-04T21:52:11;12.50;;;6.60;;
56637;SDS011;42507;51.982;20.140;2022-10-04T21:54:37;16.70;;;6.45;;
56637;SDS011;42507;51.982;20.140;2022-10-04T21:57:03;14.00;;;7.85;;
56637;SDS011;42507;51.982;20.140;2022-10-04T21:59:29;15.23;;;6.70;;
56637;SDS011;42507;51.982;20.140;2022-10-04T22:01:55;10.78;;;7.10;;
56637;SDS011;42507;51.982;20.140;2022-10-04T22:04:21;12.63;;;6.30;;
56637;SDS011;42507;51.982;20.140;2022-10-04T22:06:47;13.53;;;6.45;;
56637;SDS011;42507;51.982;20.140;2022-10-04T22:09:14;11.05;;;6.22;;
56637;SDS011;42507;51.982;20.140;2022-10-04T22:11:40;13.25;;;6.42;;
56637;SDS011;42507;51.982;20.140;2022-10-04T22:14:06;13.65;;;6.75;;
56637;SDS011;42507;51.982;20.140;2022-10-04T22:16:32;13.70;;;6.67;;
56637;SDS011;42507;51.982;20.140;2022-10-04T22:18:58;11.57;;;7.03;;
56637;SDS011;42507;51.982;20.140;2022-10-04T22:21:24;14.65;;;7.20;;
56637;SDS011;42507;51.982;20.140;2022-10-04T22:23:50;17.65;;;7.35;;
56637;SDS011;42507;51.982;20.140;2022-10-04T22:26:18;15.88;;;6.55;;
56637;SDS011;42507;51.982;20.140;2022-10-04T22:28:47;12.85;;;6.70;;
56637;SDS011;42507;51.982;20.140;2022-10-04T22:31:16;11.95;;;6.83;;
56637;SDS011;42507;51.982;20.140;2022-10-04T22:33:46;14.95;;;7.00;;
56637;SDS011;42507;51.982;20.140;2022-10-04T22:36:21;13.15;;;6.58;;
56637;SDS011;42507;51.982;20.140;2022-10-04T22:38:57;13.78;;;6.97;;
56637;SDS011;42507;51.982;20.140;2022-10-04T22:41:28;17.37;;;6.50;;
56637;SDS011;42507;51.982;20.140;2022-10-04T22:43:57;14.30;;;6.78;;
56637;SDS011;42507;51.982;20.140;2022-10-04T22:46:35;13.72;;;6.10;;
56637;SDS011;42507;51.982;20.140;2022-10-04T22:49:07;16.75;;;7.35;;
56637;SDS011;42507;51.982;20.140;2022-10-04T22:51:38;13.20;;;7.28;;
56637;SDS011;42507;51.982;20.140;2022-10-04T22:54:14;16.35;;;7.42;;
56637;SDS011;42507;51.982;20.140;2022-10-04T22:56:38;17.87;;;7.42;;
56637;SDS011;42507;51.982;20.140;2022-10-04T22:59:07;18.23;;;7.35;;
56637;SDS011;42507;51.982;20.140;2022-10-04T23:01:39;13.32;;;7.47;;
56637;SDS011;42507;51.982;20.140;2022-10-04T23:04:11;17.15;;;7.33;;
56637;SDS011;42507;51.982;20.140;2022-10-04T23:06:47;15.30;;;7.15;;
56637;SDS011;42507;51.982;20.140;2022-10-04T23:09:14;15.90;;;6.72;;
56637;SDS011;42507;51.982;20.140;2022-10-04T23:11:40;14.95;;;6.78;;
56637;SDS011;42507;51.982;20.140;2022-10-04T23:14:07;13.40;;;6.65;;
56637;SDS011;42507;51.982;20.140;2022-10-04T23:16:33;19.98;;;7.53;;
56637;SDS011;42507;51.982;20.140;2022-10-04T23:21:37;15.68;;;7.53;;
56637;SDS011;42507;51.982;20.140;2022-10-04T23:26:41;13.20;;;7.83;;
56637;SDS011;42507;51.982;20.140;2022-10-04T23:29:17;13.13;;;7.72;;
56637;SDS011;42507;51.982;20.140;2022-10-04T23:31:52;15.90;;;7.85;;